createdAt,value
2022-12-14T00:01:58.319Z,70.00
2022-12-14T00:06:59.822Z,70.25
2022-12-14T00:12:01.284Z,70.57
2022-12-14T00:17:02.777Z,70.97
2022-12-14T00:22:04.203Z,71.03
2022-12-14T00:27:05.669Z,70.65
2022-12-14T00:32:07.146Z,70.76
2022-12-14T00:37:08.636Z,70.25
2022-12-14T00:42:10.267Z,70.13
2022-12-14T00:47:11.697Z,70.99
2022-12-14T00:52:13.197Z,70.72
2022-12-14T00:57:14.718Z,70.97
2022-12-14T01:02:16.323Z,70.61
2022-12-14T01:07:17.939Z,71.11
2022-12-14T01:12:19.459Z,71.12
2022-12-14T01:17:21.068Z,70.89
2022-12-14T01:22:22.565Z,71.11
2022-12-14T01:27:24.078Z,71.21
2022-12-14T01:32:25.567Z,71.12
2022-12-14T01:37:27.066Z,71.45
2022-12-14T01:42:28.496Z,70.67
2022-12-14T01:47:41.555Z,70.57
2022-12-14T01:52:47.116Z,71.49
2022-12-14T01:57:51.344Z,71.60
2022-12-14T02:03:09.039Z,71.23
2022-12-14T02:08:11.694Z,71.76
2022-12-14T02:13:28.016Z,71.80
2022-12-14T02:18:31.817Z,71.82
2022-12-14T02:23:51.953Z,71.60
2022-12-14T02:29:27.135Z,72.19
2022-12-14T02:34:31.469Z,71.56
2022-12-14T02:39:40.175Z,71.24
2022-12-14T02:44:59.748Z,71.21
2022-12-14T02:50:22.951Z,71.31
2022-12-14T02:55:50.083Z,71.30
2022-12-14T03:00:54.383Z,71.94
2022-12-14T03:06:05.419Z,72.05
2022-12-14T03:11:07.549Z,71.59
2022-12-14T03:16:14.553Z,71.84
2022-12-14T03:21:21.545Z,72.86
2022-12-14T03:26:29.119Z,72.50
2022-12-14T03:31:33.798Z,72.05
2022-12-14T03:36:43.776Z,72.43
2022-12-14T03:42:11.223Z,72.60
2022-12-14T03:47:21.719Z,72.56
2022-12-14T03:52:38.386Z,72.31
2022-12-14T03:58:02.076Z,72.35
2022-12-14T04:03:23.603Z,72.35
2022-12-14T04:08:33.801Z,72.71
2022-12-14T04:13:40.347Z,72.78
2022-12-14T04:18:45.723Z,72.59
2022-12-14T04:23:57.334Z,72.79
2022-12-14T04:29:15.648Z,72.99
2022-12-14T04:34:20.665Z,72.52
2022-12-14T04:39:29.204Z,72.89
2022-12-14T04:44:42.569Z,71.92
2022-12-14T04:49:49.823Z,72.13
2022-12-14T04:55:03.340Z,72.64
2022-12-14T05:00:05.759Z,73.47
2022-12-14T05:05:18.517Z,73.08
2022-12-14T05:10:32.071Z,73.08
2022-12-14T05:15:44.330Z,73.44
2022-12-14T05:20:47.166Z,73.02
2022-12-14T05:25:49.213Z,73.41
2022-12-14T05:30:51.656Z,73.74
2022-12-14T05:35:54.923Z,74.37
2022-12-14T05:40:56.374Z,75.07
2022-12-14T05:45:59.332Z,74.78
2022-12-14T05:51:08.903Z,74.76
2022-12-14T05:56:10.939Z,75.06
2022-12-14T06:01:18.541Z,76.12
2022-12-14T06:06:20.745Z,76.04
2022-12-14T06:11:23.261Z,75.27
2022-12-14T06:16:25.882Z,75.00
2022-12-14T06:21:33.384Z,75.06
2022-12-14T06:26:36.039Z,74.15
2022-12-14T06:31:37.492Z,74.04
2022-12-14T06:36:41.267Z,73.96
2022-12-14T06:41:43.373Z,74.40
2022-12-14T06:46:45.036Z,75.08
2022-12-14T06:51:46.522Z,74.76
2022-12-14T06:56:48.276Z,75.55
2022-12-14T07:01:50.327Z,75.22
2022-12-14T07:06:52.079Z,74.94
2022-12-14T07:11:53.490Z,74.78
2022-12-14T07:16:54.968Z,75.46
2022-12-14T07:21:56.392Z,75.60
2022-12-14T07:26:58.097Z,75.49
2022-12-14T07:31:59.608Z,76.38
2022-12-14T07:37:01.021Z,75.80
2022-12-14T07:42:02.515Z,75.31
2022-12-14T07:47:04.236Z,75.68
2022-12-14T07:52:05.661Z,74.81
2022-12-14T07:57:07.296Z,75.56
2022-12-14T08:02:11.393Z,75.81
2022-12-14T08:07:12.902Z,75.96
2022-12-14T08:12:14.378Z,75.58
2022-12-14T08:17:15.812Z,75.60
2022-12-14T08:22:17.267Z,76.02
2022-12-14T08:27:18.738Z,75.69
2022-12-14T08:32:20.333Z,75.62
2022-12-14T08:37:21.747Z,76.54
2022-12-14T08:42:23.203Z,76.37
2022-12-14T08:47:24.674Z,77.01
2022-12-14T08:52:26.160Z,77.37
2022-12-14T08:57:27.835Z,77.61
2022-12-14T09:02:29.388Z,77.53
2022-12-14T09:07:31.873Z,77.74
2022-12-14T09:12:33.329Z,77.58
2022-12-14T09:17:34.850Z,76.86
2022-12-14T09:22:36.307Z,77.44
2022-12-14T09:27:37.742Z,77.44
2022-12-14T09:32:39.261Z,77.60
2022-12-14T09:37:40.748Z,76.84
2022-12-14T09:43:13.008Z,76.53
2022-12-14T09:48:19.734Z,76.22
2022-12-14T09:53:22.122Z,76.43
2022-12-14T09:58:31.111Z,76.73
2022-12-14T10:03:41.898Z,76.48
2022-12-14T10:08:56.954Z,76.28
2022-12-14T10:14:20.896Z,77.02
2022-12-14T10:19:45.775Z,77.51
2022-12-14T10:24:54.628Z,77.33
2022-12-14T10:30:08.713Z,78.13
2022-12-14T10:35:19.608Z,77.35
2022-12-14T10:40:34.063Z,78.05
2022-12-14T10:45:51.345Z,77.25
2022-12-14T10:51:02.978Z,77.76
2022-12-14T10:56:11.301Z,76.37
2022-12-14T11:01:14.067Z,76.73
2022-12-14T11:06:19.151Z,75.98
2022-12-14T11:11:24.746Z,75.10
2022-12-14T11:16:38.779Z,73.46
2022-12-14T11:21:41.747Z,64.99
2022-12-14T11:26:43.920Z,58.79
2022-12-14T11:31:48.335Z,58.44
2022-12-14T11:36:50.084Z,59.69
2022-12-14T11:41:57.259Z,60.01
2022-12-14T11:46:58.647Z,62.44
2022-12-14T11:52:05.788Z,63.51
2022-12-14T11:57:13.150Z,65.30
2022-12-14T12:02:32.438Z,66.18
2022-12-14T12:07:36.693Z,66.83
2022-12-14T12:12:52.246Z,68.47
2022-12-14T12:18:01.160Z,69.81
2022-12-14T12:23:13.252Z,71.04
2022-12-14T12:28:21.904Z,71.67
2022-12-14T12:33:28.732Z,72.84
2022-12-14T12:38:36.293Z,72.98
2022-12-14T12:43:49.891Z,72.47
2022-12-14T12:49:18.352Z,74.00
2022-12-14T12:54:37.820Z,74.47
2022-12-14T12:59:49.864Z,74.14
2022-12-14T13:04:53.205Z,74.36
2022-12-14T13:10:05.762Z,74.48
2022-12-14T13:15:20.859Z,74.35
2022-12-14T13:20:28.820Z,75.03
2022-12-14T13:25:48.666Z,75.11
2022-12-14T13:31:08.712Z,75.79
2022-12-14T13:36:31.014Z,76.33
2022-12-14T13:41:59.560Z,77.18
2022-12-14T13:47:03.303Z,77.63
2022-12-14T13:52:05.590Z,77.59
2022-12-14T13:57:20.501Z,78.04
2022-12-14T14:02:50.652Z,78.31
2022-12-14T14:07:57.943Z,78.51
2022-12-14T14:13:00.959Z,78.38
2022-12-14T14:18:25.795Z,79.25
2022-12-14T14:23:32.295Z,79.43
2022-12-14T14:28:34.224Z,79.16
2022-12-14T14:33:45.236Z,79.26
2022-12-14T14:38:48.559Z,79.41
2022-12-14T14:43:59.934Z,79.91
2022-12-14T14:49:01.649Z,79.94
2022-12-14T14:55:03.586Z,80.37
2022-12-14T14:59:50.884Z,80.74
2022-12-14T15:04:56.906Z,81.22
2022-12-14T15:10:20.676Z,81.29
2022-12-14T15:15:36.992Z,81.53
2022-12-14T15:20:40.468Z,82.27
2022-12-14T15:25:43.307Z,81.81
2022-12-14T15:30:48.067Z,82.59
2022-12-14T15:35:49.631Z,83.04
2022-12-14T15:40:59.222Z,83.46
2022-12-14T15:46:04.546Z,84.71
2022-12-14T15:51:11.045Z,85.77
2022-12-14T15:56:42.598Z,86.15
2022-12-14T16:01:53.217Z,86.27
2022-12-14T16:07:07.816Z,86.23
2022-12-14T16:12:24.777Z,85.48
2022-12-14T16:17:36.317Z,86.01
2022-12-14T16:22:40.235Z,85.78
2022-12-14T16:27:44.594Z,85.73
2022-12-14T16:32:49.775Z,85.61
2022-12-14T16:37:54.420Z,86.12
2022-12-14T16:42:55.853Z,85.64
2022-12-14T16:48:06.705Z,86.61
2022-12-14T16:53:14.460Z,86.10
2022-12-14T16:58:17.693Z,86.18
2022-12-14T17:03:22.146Z,86.24
2022-12-14T17:08:23.816Z,86.41
2022-12-14T17:13:25.848Z,86.72
2022-12-14T17:18:36.777Z,86.25
2022-12-14T17:23:41.316Z,85.58
2022-12-14T17:28:42.783Z,85.71
2022-12-14T17:33:44.384Z,86.57
2022-12-14T17:38:45.940Z,86.55
2022-12-14T17:43:51.163Z,86.94
2022-12-14T17:48:58.439Z,87.00
2022-12-14T17:54:03.096Z,87.29
2022-12-14T17:59:04.582Z,86.60
2022-12-14T18:04:06.301Z,87.40
2022-12-14T18:09:08.699Z,87.37
2022-12-14T18:14:13.982Z,87.60
2022-12-14T18:19:15.531Z,87.05
2022-12-14T18:24:20.282Z,86.36
2022-12-14T18:29:25.762Z,86.48
2022-12-14T18:34:27.269Z,86.25
2022-12-14T18:39:28.696Z,86.64
2022-12-14T18:44:30.169Z,87.05
2022-12-14T18:49:31.630Z,86.45
2022-12-14T18:54:33.095Z,85.94
2022-12-14T18:59:39.077Z,86.03
2022-12-14T19:04:47.873Z,86.77
2022-12-14T19:09:49.311Z,86.13
2022-12-14T19:14:50.837Z,85.67
2022-12-14T19:19:52.379Z,86.11
2022-12-14T19:24:53.859Z,85.60
2022-12-14T19:29:55.370Z,85.96
2022-12-14T19:34:56.857Z,85.61
2022-12-14T19:39:58.296Z,85.88
2022-12-14T19:44:59.766Z,85.96
2022-12-14T19:50:02.572Z,85.90
2022-12-14T19:55:04.335Z,86.05
2022-12-14T20:00:09.852Z,85.53
2022-12-14T20:05:11.320Z,85.35
2022-12-14T20:10:12.880Z,85.49
2022-12-14T20:15:14.363Z,85.23
2022-12-14T20:20:15.792Z,85.50
2022-12-14T20:25:17.403Z,84.81
2022-12-14T20:30:18.864Z,85.42
2022-12-14T20:35:20.332Z,84.85
2022-12-14T20:40:21.792Z,84.44
2022-12-14T20:45:23.281Z,85.08
2022-12-14T20:50:24.692Z,84.91
2022-12-14T20:55:26.128Z,84.91
2022-12-14T21:00:28.235Z,85.06
2022-12-14T21:05:29.861Z,84.50
2022-12-14T21:10:31.325Z,84.67
2022-12-14T21:15:32.782Z,84.62
2022-12-14T21:20:34.270Z,84.94
2022-12-14T21:25:35.684Z,84.99
2022-12-14T21:30:37.161Z,85.50
2022-12-14T21:35:40.464Z,85.56
2022-12-14T21:40:41.891Z,85.87
2022-12-14T21:45:45.708Z,86.02
2022-12-14T21:50:47.591Z,85.67
2022-12-14T21:55:50.261Z,85.72
2022-12-14T22:00:51.793Z,85.34
2022-12-14T22:05:53.326Z,85.16
2022-12-14T22:10:54.802Z,85.31
2022-12-14T22:15:56.382Z,85.07
2022-12-14T22:21:05.445Z,85.19
2022-12-14T22:26:07.192Z,85.21
2022-12-14T22:31:08.678Z,84.90
2022-12-14T22:36:10.124Z,85.17
2022-12-14T22:41:14.469Z,85.24
2022-12-14T22:46:15.978Z,85.04
2022-12-14T22:51:18.646Z,84.92
2022-12-14T22:56:23.019Z,84.96
2022-12-14T23:01:24.931Z,85.17
2022-12-14T23:06:27.185Z,85.11
2022-12-14T23:11:28.624Z,85.30
2022-12-14T23:16:30.218Z,85.67
2022-12-14T23:21:31.771Z,85.10
2022-12-14T23:26:33.288Z,84.86
2022-12-14T23:31:34.765Z,84.89
2022-12-14T23:36:36.199Z,85.18
2022-12-14T23:41:37.668Z,85.20
2022-12-14T23:46:39.152Z,85.12
2022-12-14T23:51:40.676Z,84.95
2022-12-14T23:56:42.089Z,84.57
